Time;durP1;ratioP1;P1;durP2;ratioP2;P2;SDS_P1;SDS_P2;PMS_P1;PMS_P2;Temp;Humidity;BMP_temperature;BMP_pressure;BME280_temperature;BME280_humidity;BME280_pressure;Samples;Min_cycle;Max_cycle;Signal;HPM_P1;HPM_P2
2021/04/11 00:00:00;;;;;;;;;;;22.70;42.80;;;;;;1576817;74;833;-70
2021/04/11 00:02:02;;;;;;;;;;;22.80;42.80;;;;;;1591008;74;775;-68
2021/04/11 00:04:04;;;;;;;;;;;22.80;42.90;;;;;;1574599;74;1939;-67
2021/04/11 00:06:06;;;;;;;;;;;22.70;42.90;;;;;;1578104;74;1105;-68
2021/04/11 00:08:08;;;;;;;;;;;22.80;42.80;;;;;;1576830;74;784;-69
2021/04/11 00:10:12;;;;;;;;;;;22.80;42.70;;;;;;1556435;74;765;-66
2021/04/11 00:12:14;;;;;;;;;;;22.80;42.80;;;;;;1579071;74;2023;-67
2021/04/11 00:14:15;;;;;;;;;;;22.80;42.70;;;;;;1565339;74;698;-68
2021/04/11 00:16:17;;;;;;;;;;;22.80;42.50;;;;;;1561986;74;1185;-67
2021/04/11 00:18:19;;;;;;;;;;;22.80;42.70;;;;;;1566860;74;799;-67
2021/04/11 00:20:21;;;;;;;;;;;22.80;42.60;;;;;;1560525;74;781;-67
2021/04/11 00:22:23;;;;;;;;;;;22.80;42.60;;;;;;1570497;74;773;-67
2021/04/11 00:24:25;;;;;;;;;;;22.80;42.70;;;;;;1572620;74;1941;-67
2021/04/11 00:26:27;;;;;;;;;;;22.80;42.70;;;;;;1574343;74;1163;-67
2021/04/11 00:28:29;;;;;;;;;;;22.80;42.60;;;;;;1560501;74;777;-67
2021/04/11 00:30:30;;;;;;;;;;;22.80;42.70;;;;;;1572336;74;786;-71
2021/04/11 00:32:32;;;;;;;;;;;22.80;42.70;;;;;;1570162;74;769;-69
2021/04/11 00:34:34;;;;;;;;;;;22.80;42.60;;;;;;1568726;74;874;-68
2021/04/11 00:36:36;;;;;;;;;;;22.80;42.70;;;;;;1578324;74;1174;-68
2021/04/11 00:38:38;;;;;;;;;;;22.80;42.60;;;;;;1563540;74;759;-68
2021/04/11 00:40:40;;;;;;;;;;;22.80;42.60;;;;;;1567597;74;715;-68
2021/04/11 00:42:42;;;;;;;;;;;22.80;42.60;;;;;;1563957;74;692;-68
2021/04/11 00:44:44;;;;;;;;;;;22.90;42.70;;;;;;1566779;74;1933;-68
2021/04/11 00:46:53;;;;;;;;;;;22.80;42.50;;;;;;1556944;74;1157;-68
2021/04/11 00:48:55;;;;;;;;;;;22.70;42.60;;;;;;1561870;74;917;-68
2021/04/11 00:51:01;;;;;;;;;;;22.80;42.70;;;;;;1576998;74;791;-67
2021/04/11 00:53:03;;;;;;;;;;;22.80;42.70;;;;;;1557041;74;793;-69
2021/04/11 00:55:05;;;;;;;;;;;22.80;42.80;;;;;;1552035;74;715;-69
2021/04/11 00:57:07;;;;;;;;;;;22.80;42.80;;;;;;1551774;74;1147;-67
2021/04/11 00:59:09;;;;;;;;;;;22.80;42.80;;;;;;1571426;74;902;-68
2021/04/11 01:01:11;;;;;;;;;;;22.80;42.80;;;;;;1551680;74;774;-69
2021/04/11 01:03:17;;;;;;;;;;;22.80;42.80;;;;;;1561681;74;1933;-70
2021/04/11 01:05:21;;;;;;;;;;;22.80;42.90;;;;;;1565661;74;774;-68
2021/04/11 01:07:22;;;;;;;;;;;22.80;43.00;;;;;;1567843;74;1144;-65
2021/04/11 01:09:26;;;;;;;;;;;22.70;43.10;;;;;;1566055;74;789;-67
2021/04/11 01:11:29;;;;;;;;;;;22.80;43.10;;;;;;1571828;74;717;-69
2021/04/11 01:13:31;;;;;;;;;;;22.70;43.10;;;;;;1572120;74;812;-68
2021/04/11 01:15:33;;;;;;;;;;;22.70;43.10;;;;;;1568523;74;730;-65
2021/04/11 01:17:35;;;;;;;;;;;22.80;43.20;;;;;;1565857;74;1195;-64
2021/04/11 01:19:37;;;;;;;;;;;22.80;43.20;;;;;;1556876;74;677;-66
2021/04/11 01:21:41;;;;;;;;;;;22.70;43.20;;;;;;1570944;74;710;-66
2021/04/11 01:24:00;;;;;;;;;;;22.70;42.90;;;;;;1552113;74;1933;-66
2021/04/11 01:26:02;;;;;;;;;;;22.80;42.90;;;;;;1551956;74;1234;-66
2021/04/11 01:28:09;;;;;;;;;;;22.70;43.10;;;;;;1563946;74;869;-67
2021/04/11 01:30:24;;;;;;;;;;;22.70;43.10;;;;;;1566303;74;732;-69
2021/04/11 01:32:26;;;;;;;;;;;22.70;43.00;;;;;;1522862;77;770;-67
2021/04/11 01:34:28;;;;;;;;;;;22.70;43.00;;;;;;1520649;77;742;-69
2021/04/11 01:36:31;;;;;;;;;;;22.70;43.00;;;;;;1515904;77;1173;-65
2021/04/11 01:38:32;;;;;;;;;;;22.60;43.00;;;;;;1520203;76;726;-69
2021/04/11 01:40:36;;;;;;;;;;;22.70;43.20;;;;;;1522684;78;725;-67
2021/04/11 01:42:38;;;;;;;;;;;22.70;43.20;;;;;;1510386;77;745;-67
2021/04/11 01:44:40;;;;;;;;;;;22.70;43.10;;;;;;1517838;77;1933;-66
2021/04/11 01:46:42;;;;;;;;;;;22.70;43.30;;;;;;1554771;74;1116;-66
2021/04/11 01:48:44;;;;;;;;;;;22.60;43.00;;;;;;1565174;74;782;-68
2021/04/11 01:50:46;;;;;;;;;;;22.60;43.30;;;;;;1541809;75;843;-67
2021/04/11 01:52:48;;;;;;;;;;;22.70;43.40;;;;;;1571896;74;721;-67
2021/04/11 01:54:50;;;;;;;;;;;22.60;43.30;;;;;;1561065;74;596;-67
2021/04/11 01:56:52;;;;;;;;;;;22.70;43.40;;;;;;1561465;74;1158;-67
2021/04/11 01:58:54;;;;;;;;;;;22.80;43.60;;;;;;1574173;74;805;-69
2021/04/11 02:01:13;;;;;;;;;;;22.70;43.50;;;;;;1573027;74;770;-66
2021/04/11 02:03:15;;;;;;;;;;;22.70;43.60;;;;;;1564667;74;726;-66
2021/04/11 02:05:18;;;;;;;;;;;22.70;43.20;;;;;;1563411;74;1939;-67
2021/04/11 02:07:20;;;;;;;;;;;22.80;43.20;;;;;;1566147;74;1125;-66
2021/04/11 02:09:23;;;;;;;;;;;22.70;43.10;;;;;;1560173;74;813;-67
2021/04/11 02:11:25;;;;;;;;;;;22.70;43.10;;;;;;1574025;74;690;-66
2021/04/11 02:13:28;;;;;;;;;;;22.70;43.00;;;;;;1554499;74;806;-67
2021/04/11 02:15:34;;;;;;;;;;;22.70;43.10;;;;;;1551695;74;739;-67
2021/04/11 02:17:37;;;;;;;;;;;22.70;43.00;;;;;;1560937;74;1187;-67
2021/04/11 02:19:39;;;;;;;;;;;22.80;43.10;;;;;;1555749;74;777;-67
2021/04/11 02:21:41;;;;;;;;;;;22.70;43.10;;;;;;1565541;74;710;-67
2021/04/11 02:23:43;;;;;;;;;;;22.60;43.00;;;;;;1571093;74;1933;-66
2021/04/11 02:25:46;;;;;;;;;;;22.70;43.00;;;;;;1553154;74;750;-66
2021/04/11 02:27:48;;;;;;;;;;;22.70;43.40;;;;;;1551776;74;1128;-70
2021/04/11 02:29:50;;;;;;;;;;;22.70;43.40;;;;;;1551764;74;779;-70
2021/04/11 02:31:52;;;;;;;;;;;22.80;43.50;;;;;;1572332;74;808;-65
2021/04/11 02:33:58;;;;;;;;;;;22.70;43.40;;;;;;1561268;74;764;-66
2021/04/11 02:36:00;;;;;;;;;;;22.70;43.50;;;;;;1565259;74;782;-67
2021/04/11 02:38:02;;;;;;;;;;;22.80;43.50;;;;;;1580653;74;809;-66
2021/04/11 02:40:05;;;;;;;;;;;22.60;43.50;;;;;;1576089;74;809;-68
2021/04/11 02:42:17;;;;;;;;;;;22.70;43.40;;;;;;1571289;74;784;-68
2021/04/11 02:44:19;;;;;;;;;;;22.60;43.60;;;;;;1555673;74;1950;-69
2021/04/11 02:46:20;;;;;;;;;;;22.60;43.70;;;;;;1569043;74;1120;-69
2021/04/11 02:48:22;;;;;;;;;;;22.50;44.10;;;;;;1577078;74;749;-68
2021/04/11 02:50:26;;;;;;;;;;;22.50;44.00;;;;;;1581264;74;757;-67
2021/04/11 02:52:32;;;;;;;;;;;22.50;44.20;;;;;;1572708;74;729;-68
2021/04/11 02:54:34;;;;;;;;;;;22.30;44.00;;;;;;1578586;74;774;-67
2021/04/11 02:56:39;;;;;;;;;;;22.40;44.20;;;;;;1541599;75;1129;-69
2021/04/11 02:58:41;;;;;;;;;;;22.30;44.10;;;;;;1537363;75;772;-70
2021/04/11 03:00:44;;;;;;;;;;;22.40;44.20;;;;;;1531237;75;737;-69
2021/04/11 03:02:46;;;;;;;;;;;22.40;44.30;;;;;;1543091;75;709;-70
2021/04/11 03:04:50;;;;;;;;;;;22.30;44.30;;;;;;1588983;74;1938;-70
2021/04/11 03:06:59;;;;;;;;;;;22.40;44.30;;;;;;1587230;74;1162;-70
2021/04/11 03:09:02;;;;;;;;;;;22.40;44.50;;;;;;1564386;75;816;-67
2021/04/11 03:11:24;;;;;;;;;;;22.40;44.40;;;;;;1591231;74;697;-68
2021/04/11 03:13:26;;;;;;;;;;;22.40;44.30;;;;;;1569605;74;1884;-66
2021/04/11 03:15:28;;;;;;;;;;;22.40;44.30;;;;;;1577778;74;749;-65
2021/04/11 03:17:30;;;;;;;;;;;22.40;44.20;;;;;;1561316;74;1180;-67
2021/04/11 03:19:35;;;;;;;;;;;22.40;44.30;;;;;;1576372;74;777;-67
2021/04/11 03:21:38;;;;;;;;;;;22.40;44.30;;;;;;1565049;74;853;-67
2021/04/11 03:23:40;;;;;;;;;;;22.50;44.40;;;;;;1572449;74;1446;-67
2021/04/11 03:25:42;;;;;;;;;;;22.50;44.30;;;;;;1572566;74;1947;-69
2021/04/11 03:27:45;;;;;;;;;;;22.50;44.30;;;;;;1571480;75;1097;-68
2021/04/11 03:30:05;;;;;;;;;;;22.60;44.30;;;;;;1564353;74;720;-68
2021/04/11 03:32:09;;;;;;;;;;;22.50;44.30;;;;;;1554031;74;750;-66
2021/04/11 03:34:10;;;;;;;;;;;22.50;44.40;;;;;;1566607;74;726;-65
2021/04/11 03:36:13;;;;;;;;;;;22.50;44.50;;;;;;1559179;74;1139;-65
2021/04/11 03:38:16;;;;;;;;;;;22.50;44.50;;;;;;1563589;74;731;-67
2021/04/11 03:40:19;;;;;;;;;;;22.60;44.50;;;;;;1565533;74;732;-68
2021/04/11 03:42:22;;;;;;;;;;;22.60;44.40;;;;;;1562866;74;784;-66
2021/04/11 03:44:24;;;;;;;;;;;22.60;44.50;;;;;;1577377;74;1942;-65
2021/04/11 03:46:36;;;;;;;;;;;22.60;44.40;;;;;;1555713;74;1074;-66
2021/04/11 03:48:42;;;;;;;;;;;22.60;44.30;;;;;;1558209;74;722;-69
2021/04/11 03:50:45;;;;;;;;;;;22.60;44.40;;;;;;1561849;74;789;-69
2021/04/11 03:53:07;;;;;;;;;;;22.70;44.50;;;;;;1578049;74;706;-70
2021/04/11 03:55:10;;;;;;;;;;;22.70;44.40;;;;;;1568833;74;1818;-71
2021/04/11 03:57:14;;;;;;;;;;;22.60;44.30;;;;;;1568922;74;1111;-70
2021/04/11 03:59:17;;;;;;;;;;;22.70;44.40;;;;;;1570763;74;1823;-67
2021/04/11 04:01:20;;;;;;;;;;;22.60;44.30;;;;;;1578418;74;1812;-69
2021/04/11 04:03:23;;;;;;;;;;;22.60;44.40;;;;;;1587090;74;789;-68
2021/04/11 04:05:26;;;;;;;;;;;22.60;44.20;;;;;;1570676;74;1929;-68
2021/04/11 04:07:28;;;;;;;;;;;22.60;44.20;;;;;;1572462;73;221519;-67
2021/04/11 04:09:30;;;;;;;;;;;22.70;44.30;;;;;;1581683;73;719;-69
2021/04/11 04:11:48;;;;;;;;;;;22.70;44.30;;;;;;1582629;73;710;-67
2021/04/11 04:13:58;;;;;;;;;;;22.70;44.30;;;;;;1573504;73;734;-70
2021/04/11 04:16:18;;;;;;;;;;;22.70;44.20;;;;;;1578130;74;712;-67
2021/04/11 04:18:24;;;;;;;;;;;22.70;44.30;;;;;;1557717;74;1164;-67
2021/04/11 04:20:43;;;;;;;;;;;22.60;44.10;;;;;;1553610;74;1592;-67
2021/04/11 04:22:46;;;;;;;;;;;22.60;44.00;;;;;;1562463;74;678;-68
2021/04/11 04:24:52;;;;;;;;;;;22.70;44.10;;;;;;1551416;75;1940;-67
2021/04/11 04:26:59;;;;;;;;;;;22.70;44.10;;;;;;1548261;74;1789;-67
2021/04/11 04:29:05;;;;;;;;;;;22.70;44.10;;;;;;1548454;74;768;-70
2021/04/11 04:31:12;;;;;;;;;;;22.70;44.20;;;;;;1554092;74;792;-68
2021/04/11 04:33:24;;;;;;;;;;;22.80;44.20;;;;;;1548071;74;1577;-67
2021/04/11 04:35:33;;;;;;;;;;;22.80;44.30;;;;;;1557398;74;766;-67
2021/04/11 04:37:39;;;;;;;;;;;22.70;44.30;;;;;;1557384;74;1138;-67
2021/04/11 04:39:46;;;;;;;;;;;22.80;44.30;;;;;;1558344;74;1961;-71
2021/04/11 04:42:02;;;;;;;;;;;22.80;44.20;;;;;;1554962;74;758;-69
2021/04/11 04:44:05;;;;;;;;;;;22.80;44.20;;;;;;1556399;76;1911;-68
2021/04/11 04:46:11;;;;;;;;;;;22.80;44.20;;;;;;1561242;74;1966;-67
2021/04/11 04:48:15;;;;;;;;;;;22.80;44.30;;;;;;1544860;75;1854;-67
2021/04/11 04:50:21;;;;;;;;;;;22.90;44.70;;;;;;1559145;74;932;-66
2021/04/11 04:52:27;;;;;;;;;;;22.80;44.70;;;;;;1562628;74;745;-66
2021/04/11 04:54:33;;;;;;;;;;;22.80;44.70;;;;;;1562924;74;758;-66
2021/04/11 04:56:36;;;;;;;;;;;22.90;44.70;;;;;;1564665;74;1148;-66
2021/04/11 04:58:40;;;;;;;;;;;22.80;44.60;;;;;;1563422;74;781;-66
2021/04/11 05:00:43;;;;;;;;;;;22.90;44.60;;;;;;1548388;74;792;-68
2021/04/11 05:02:46;;;;;;;;;;;22.90;44.50;;;;;;1560236;74;1683;-70
2021/04/11 05:04:55;;;;;;;;;;;22.80;44.40;;;;;;1551154;74;1941;-68
2021/04/11 05:06:58;;;;;;;;;;;22.90;44.40;;;;;;1559422;74;1132;-66
2021/04/11 05:09:02;;;;;;;;;;;22.90;44.30;;;;;;1558254;74;1830;-66
2021/04/11 05:11:05;;;;;;;;;;;23.00;44.30;;;;;;1558405;74;792;-68
2021/04/11 05:13:08;;;;;;;;;;;23.00;44.20;;;;;;1553478;74;737;-66
2021/04/11 05:15:14;;;;;;;;;;;23.00;44.20;;;;;;1551846;76;829;-66
2021/04/11 05:17:20;;;;;;;;;;;23.00;44.20;;;;;;1547350;74;1821;-66
2021/04/11 05:19:24;;;;;;;;;;;23.00;44.20;;;;;;1553635;74;772;-67
2021/04/11 05:21:26;;;;;;;;;;;23.00;44.00;;;;;;1548826;74;1921;-68
2021/04/11 05:23:30;;;;;;;;;;;23.00;43.90;;;;;;1556431;74;759;-71
2021/04/11 05:25:39;;;;;;;;;;;23.00;44.10;;;;;;1554030;74;1925;-66
2021/04/11 05:27:58;;;;;;;;;;;23.00;44.00;;;;;;1551982;74;1888;-66
2021/04/11 05:30:05;;;;;;;;;;;23.10;44.00;;;;;;1555087;74;752;-67
2021/04/11 05:32:07;;;;;;;;;;;23.10;43.90;;;;;;1557100;74;1933;-68
2021/04/11 05:34:10;;;;;;;;;;;23.00;43.90;;;;;;1562041;74;771;-67
2021/04/11 05:36:26;;;;;;;;;;;23.00;43.80;;;;;;1560825;74;2105;-67
2021/04/11 05:38:41;;;;;;;;;;;23.00;43.70;;;;;;1558073;76;1653;-66
2021/04/11 05:40:45;;;;;;;;;;;23.00;43.90;;;;;;1551415;74;1866;-68
2021/04/11 05:42:51;;;;;;;;;;;23.00;43.90;;;;;;1547696;76;808;-66
2021/04/11 05:45:09;;;;;;;;;;;23.00;43.90;;;;;;1547505;74;2084;-67
2021/04/11 05:47:28;;;;;;;;;;;23.00;43.90;;;;;;1564830;75;1113;-69
2021/04/11 05:49:32;;;;;;;;;;;23.00;43.90;;;;;;1554171;74;1844;-66
2021/04/11 05:51:38;;;;;;;;;;;23.00;44.10;;;;;;1553150;74;1530;-69
2021/04/11 05:53:48;;;;;;;;;;;23.00;44.20;;;;;;1549627;74;674;-66
2021/04/11 05:55:52;;;;;;;;;;;23.00;44.30;;;;;;1567517;74;681;-67
2021/04/11 05:58:01;;;;;;;;;;;22.90;44.30;;;;;;1551924;74;1893;-68
2021/04/11 06:00:10;;;;;;;;;;;23.00;44.20;;;;;;1563867;74;729;-66
2021/04/11 06:02:14;;;;;;;;;;;23.00;44.20;;;;;;1529418;74;1018;-68
2021/04/11 06:04:20;;;;;;;;;;;23.00;44.20;;;;;;1581386;74;755;-64
2021/04/11 06:06:23;;;;;;;;;;;23.00;44.30;;;;;;1561983;74;1957;-65
2021/04/11 06:08:26;;;;;;;;;;;22.90;44.50;;;;;;1561605;74;786;-66
2021/04/11 06:10:39;;;;;;;;;;;22.90;44.40;;;;;;1542531;74;854;-67
2021/04/11 06:12:52;;;;;;;;;;;22.90;44.40;;;;;;1556394;75;812;-67
2021/04/11 06:15:12;;;;;;;;;;;23.00;44.40;;;;;;1552877;74;726;-66
2021/04/11 06:17:14;;;;;;;;;;;22.90;44.20;;;;;;1553570;74;1194;-66
2021/04/11 06:19:16;;;;;;;;;;;23.00;44.10;;;;;;1552833;74;624;-66
2021/04/11 06:21:19;;;;;;;;;;;23.00;43.90;;;;;;1565667;74;796;-69
2021/04/11 06:23:28;;;;;;;;;;;23.10;43.90;;;;;;1555606;74;2120;-67
2021/04/11 06:25:39;;;;;;;;;;;23.10;43.80;;;;;;1546895;74;1940;-65
2021/04/11 06:27:45;;;;;;;;;;;23.10;43.80;;;;;;1552559;74;1143;-68
2021/04/11 06:29:55;;;;;;;;;;;23.20;43.60;;;;;;1554121;74;711;-67
2021/04/11 06:31:57;;;;;;;;;;;23.20;43.50;;;;;;1551807;74;721;-67
2021/04/11 06:34:04;;;;;;;;;;;23.20;43.60;;;;;;1541085;74;799;-67
2021/04/11 06:36:07;;;;;;;;;;;23.20;43.50;;;;;;1539502;76;1101;-66
2021/04/11 06:38:10;;;;;;;;;;;23.20;43.40;;;;;;1562229;74;1122;-66
2021/04/11 06:40:30;;;;;;;;;;;23.20;43.40;;;;;;1550369;74;775;-67
2021/04/11 06:42:50;;;;;;;;;;;23.20;43.30;;;;;;1548199;74;671;-67
2021/04/11 06:45:05;;;;;;;;;;;23.20;43.40;;;;;;1552657;74;790;-66
2021/04/11 06:47:09;;;;;;;;;;;23.20;43.60;;;;;;1550249;74;2011;-66
2021/04/11 06:49:12;;;;;;;;;;;23.10;43.90;;;;;;1546398;74;722;-67
2021/04/11 06:51:33;;;;;;;;;;;23.10;44.20;;;;;;1553213;74;764;-67
2021/04/11 06:53:52;;;;;;;;;;;23.10;44.40;;;;;;1554858;74;754;-68
2021/04/11 06:56:02;;;;;;;;;;;23.10;44.60;;;;;;1549439;74;760;-67
2021/04/11 06:58:24;;;;;;;;;;;23.10;44.60;;;;;;1561425;74;1861;-68
2021/04/11 07:00:27;;;;;;;;;;;23.10;44.70;;;;;;1563635;74;676;-66
2021/04/11 07:02:37;;;;;;;;;;;23.00;44.50;;;;;;1562082;74;828;-66
2021/04/11 07:04:57;;;;;;;;;;;23.10;44.60;;;;;;1567650;74;1875;-66
2021/04/11 07:07:03;;;;;;;;;;;23.00;44.30;;;;;;1559720;74;1187;-65
2021/04/11 07:09:07;;;;;;;;;;;23.10;44.40;;;;;;1558557;74;788;-66
2021/04/11 07:11:10;;;;;;;;;;;23.10;44.20;;;;;;1565384;74;803;-66
2021/04/11 07:13:20;;;;;;;;;;;23.10;44.10;;;;;;1574915;74;794;-66
2021/04/11 07:15:26;;;;;;;;;;;23.20;43.70;;;;;;1567830;74;785;-65
2021/04/11 07:17:46;;;;;;;;;;;23.30;43.60;;;;;;1571141;74;1159;-65
2021/04/11 07:20:06;;;;;;;;;;;23.20;43.40;;;;;;1562666;74;689;-65
2021/04/11 07:22:09;;;;;;;;;;;23.20;43.80;;;;;;1568472;74;781;-65
2021/04/11 07:24:25;;;;;;;;;;;23.30;43.80;;;;;;1554079;74;692;-66
2021/04/11 07:26:45;;;;;;;;;;;23.30;42.10;;;;;;1550018;74;1950;-63
2021/04/11 07:28:55;;;;;;;;;;;23.20;40.30;;;;;;1564018;74;806;-64
2021/04/11 07:31:01;;;;;;;;;;;23.20;40.00;;;;;;1562333;74;1927;-65
2021/04/11 07:33:04;;;;;;;;;;;23.20;39.00;;;;;;1565948;74;683;-64
2021/04/11 07:35:20;;;;;;;;;;;23.10;39.20;;;;;;1567844;74;731;-64
2021/04/11 07:37:42;;;;;;;;;;;23.10;38.30;;;;;;1563845;74;1779;-65
2021/04/11 07:39:47;;;;;;;;;;;23.10;37.70;;;;;;1561513;74;717;-64
2021/04/11 07:41:51;;;;;;;;;;;23.10;37.50;;;;;;1567633;74;737;-64
2021/04/11 07:44:10;;;;;;;;;;;23.20;38.00;;;;;;1565561;74;1682;-65
2021/04/11 07:46:20;;;;;;;;;;;23.20;37.80;;;;;;1575178;74;1924;-66
2021/04/11 07:48:30;;;;;;;;;;;23.20;38.70;;;;;;1562007;74;1996;-64
2021/04/11 07:50:45;;;;;;;;;;;23.20;39.40;;;;;;1559656;74;766;-64
2021/04/11 07:53:06;;;;;;;;;;;23.20;38.50;;;;;;1565540;74;757;-65
2021/04/11 07:55:25;;;;;;;;;;;23.30;40.30;;;;;;1566917;74;859;-63
2021/04/11 07:57:29;;;;;;;;;;;23.40;40.70;;;;;;1558709;75;1105;-64
2021/04/11 07:59:41;;;;;;;;;;;23.40;41.50;;;;;;1577865;74;1965;-64
2021/04/11 08:01:54;;;;;;;;;;;23.50;42.40;;;;;;1567807;74;1890;-64
2021/04/11 08:04:13;;;;;;;;;;;23.50;41.10;;;;;;1549164;74;2212;-64
2021/04/11 08:06:22;;;;;;;;;;;23.50;40.40;;;;;;1570984;74;1963;-64
2021/04/11 08:08:35;;;;;;;;;;;23.60;40.70;;;;;;1560446;74;748;-64
2021/04/11 08:10:53;;;;;;;;;;;23.50;39.10;;;;;;1563805;74;2100;-63
2021/04/11 08:13:12;;;;;;;;;;;23.50;38.10;;;;;;1564176;74;1900;-63
2021/04/11 08:15:18;;;;;;;;;;;23.50;37.60;;;;;;1570573;74;742;-63
2021/04/11 08:17:38;;;;;;;;;;;23.50;36.50;;;;;;1548271;74;1175;-63
2021/04/11 08:19:48;;;;;;;;;;;23.40;36.20;;;;;;1562322;74;696;-64
2021/04/11 08:22:08;;;;;;;;;;;23.50;36.00;;;;;;1575563;74;732;-64
2021/04/11 08:24:12;;;;;;;;;;;23.40;34.70;;;;;;1578455;74;808;-64
2021/04/11 08:26:18;;;;;;;;;;;23.40;33.60;;;;;;1552026;74;1931;-64
2021/04/11 08:28:37;;;;;;;;;;;23.40;34.20;;;;;;1568192;74;1160;-64
2021/04/11 08:30:43;;;;;;;;;;;23.40;33.50;;;;;;1553478;74;1913;-64
2021/04/11 08:33:05;;;;;;;;;;;23.30;32.60;;;;;;1562215;74;1670;-64
2021/04/11 08:35:25;;;;;;;;;;;23.20;32.30;;;;;;1568589;74;795;-64
2021/04/11 08:37:41;;;;;;;;;;;23.10;33.40;;;;;;1561442;74;1163;-64
2021/04/11 08:39:44;;;;;;;;;;;23.00;32.10;;;;;;1562105;74;834;-64
2021/04/11 08:42:04;;;;;;;;;;;23.10;33.00;;;;;;1578245;74;808;-64
2021/04/11 08:44:17;;;;;;;;;;;23.10;33.00;;;;;;1554400;74;810;-65
2021/04/11 08:46:37;;;;;;;;;;;23.20;32.60;;;;;;1575845;74;1929;-69
2021/04/11 08:48:57;;;;;;;;;;;23.20;32.80;;;;;;1558750;74;736;-68
2021/04/11 08:51:06;;;;;;;;;;;23.10;31.00;;;;;;1568666;74;717;-66
2021/04/11 08:53:09;;;;;;;;;;;23.10;29.20;;;;;;1556585;74;1952;-64
2021/04/11 08:55:31;;;;;;;;;;;22.80;30.00;;;;;;1577185;74;1555;-62
2021/04/11 08:57:50;;;;;;;;;;;22.80;30.90;;;;;;1573685;74;1221;-61
2021/04/11 08:59:59;;;;;;;;;;;22.80;30.00;;;;;;1556785;74;1437;-60
2021/04/11 09:02:19;;;;;;;;;;;22.70;29.60;;;;;;1558365;74;731;-60
2021/04/11 09:04:26;;;;;;;;;;;22.60;29.60;;;;;;1560113;74;817;-61
2021/04/11 09:06:44;;;;;;;;;;;22.60;28.80;;;;;;1561519;74;1938;-62
2021/04/11 09:08:48;;;;;;;;;;;22.50;28.10;;;;;;1558030;74;2222;-61
2021/04/11 09:10:51;;;;;;;;;;;22.50;29.00;;;;;;1555671;74;811;-61
2021/04/11 09:13:11;;;;;;;;;;;22.60;29.70;;;;;;1559006;74;736;-62
2021/04/11 09:15:15;;;;;;;;;;;22.60;28.60;;;;;;1557359;74;817;-63
2021/04/11 09:17:35;;;;;;;;;;;22.40;28.70;;;;;;1555690;74;1499;-61
2021/04/11 09:19:44;;;;;;;;;;;22.30;29.30;;;;;;1556686;74;661;-61
2021/04/11 09:22:04;;;;;;;;;;;22.40;29.60;;;;;;1559551;74;2018;-61
2021/04/11 09:24:10;;;;;;;;;;;22.40;30.20;;;;;;1556284;74;713;-63
2021/04/11 09:26:16;;;;;;;;;;;22.40;28.10;;;;;;1556604;74;1921;-61
2021/04/11 09:28:38;;;;;;;;;;;22.30;28.80;;;;;;1558413;74;1629;-63
2021/04/11 09:30:44;;;;;;;;;;;22.30;29.00;;;;;;1557123;74;1722;-61
2021/04/11 09:32:54;;;;;;;;;;;22.30;28.50;;;;;;1557797;74;753;-62
2021/04/11 09:35:09;;;;;;;;;;;22.40;29.00;;;;;;1555087;74;1997;-61
2021/04/11 09:37:30;;;;;;;;;;;22.40;29.10;;;;;;1556780;74;1132;-62
2021/04/11 09:39:36;;;;;;;;;;;22.40;29.10;;;;;;1559572;74;678;-62
2021/04/11 09:41:42;;;;;;;;;;;22.50;28.90;;;;;;1556567;74;1873;-61
2021/04/11 09:44:02;;;;;;;;;;;22.50;28.20;;;;;;1558492;74;746;-61
2021/04/11 09:46:15;;;;;;;;;;;22.40;26.80;;;;;;1555448;74;1911;-60
2021/04/11 09:48:36;;;;;;;;;;;22.30;26.50;;;;;;1558552;74;1181;-61
2021/04/11 09:50:55;;;;;;;;;;;22.20;26.40;;;;;;1558580;74;2071;-61
2021/04/11 09:53:15;;;;;;;;;;;22.30;28.10;;;;;;1556961;74;709;-61
2021/04/11 09:55:25;;;;;;;;;;;22.30;27.30;;;;;;1560243;74;768;-61
2021/04/11 09:57:28;;;;;;;;;;;22.20;27.60;;;;;;1556826;74;1200;-62
2021/04/11 09:59:32;;;;;;;;;;;22.20;26.90;;;;;;1557039;74;1672;-61
2021/04/11 10:01:35;;;;;;;;;;;22.00;26.20;;;;;;1558582;74;758;-61
2021/04/11 10:03:55;;;;;;;;;;;22.00;27.10;;;;;;1557818;74;2171;-61
2021/04/11 10:06:17;;;;;;;;;;;21.90;27.30;;;;;;1563005;74;1919;-62
2021/04/11 10:08:37;;;;;;;;;;;21.90;27.70;;;;;;1537358;74;222084;-69
2021/04/11 10:10:43;;;;;;;;;;;22.00;28.10;;;;;;1576172;75;730;-68
2021/04/11 10:12:59;;;;;;;;;;;22.00;28.30;;;;;;1577417;74;793;-69
2021/04/11 10:15:05;;;;;;;;;;;22.00;28.40;;;;;;1576241;74;742;-70
2021/04/11 10:17:27;;;;;;;;;;;22.10;28.60;;;;;;1575815;73;1158;-69
2021/04/11 10:19:33;;;;;;;;;;;22.10;28.30;;;;;;1577476;74;682;-69
2021/04/11 10:21:37;;;;;;;;;;;22.30;28.90;;;;;;1576930;75;646;-69
2021/04/11 10:23:49;;;;;;;;;;;22.40;29.00;;;;;;1575911;74;701;-68
2021/04/11 10:25:56;;;;;;;;;;;22.20;27.80;;;;;;1576155;74;791;-68
2021/04/11 10:28:16;;;;;;;;;;;22.10;28.10;;;;;;1564467;74;1826;-68
2021/04/11 10:30:18;;;;;;;;;;;21.90;27.90;;;;;;1577694;74;706;-70
2021/04/11 10:32:24;;;;;;;;;;;21.80;27.10;;;;;;1575383;74;743;-68
2021/04/11 10:34:34;;;;;;;;;;;21.80;27.80;;;;;;1577527;74;2006;-68
2021/04/11 10:36:40;;;;;;;;;;;21.80;27.50;;;;;;1526694;74;915;-71
2021/04/11 10:38:43;;;;;;;;;;;21.80;28.50;;;;;;1576866;75;1210;-68
2021/04/11 10:41:03;;;;;;;;;;;21.90;28.80;;;;;;1576605;74;724;-68
2021/04/11 10:43:07;;;;;;;;;;;22.10;29.10;;;;;;1577378;74;916;-68
2021/04/11 10:45:22;;;;;;;;;;;22.20;29.10;;;;;;1576554;74;722;-68
2021/04/11 10:47:26;;;;;;;;;;;22.20;29.20;;;;;;1576275;73;1925;-69
2021/04/11 10:49:29;;;;;;;;;;;22.20;29.40;;;;;;1574441;74;721;-68
2021/04/11 10:51:39;;;;;;;;;;;22.30;29.40;;;;;;1577284;74;1931;-70
2021/04/11 10:53:48;;;;;;;;;;;22.40;29.80;;;;;;1576461;74;718;-69
2021/04/11 10:55:55;;;;;;;;;;;22.30;29.00;;;;;;1574657;74;1881;-68
2021/04/11 10:58:10;;;;;;;;;;;22.30;29.40;;;;;;1558229;74;1111;-71
2021/04/11 11:00:14;;;;;;;;;;;22.30;29.70;;;;;;1560611;75;1959;-69
2021/04/11 11:02:32;;;;;;;;;;;22.30;30.50;;;;;;1568933;74;751;-71
2021/04/11 11:04:54;;;;;;;;;;;22.30;29.90;;;;;;1562062;74;729;-71
2021/04/11 11:07:15;;;;;;;;;;;22.30;30.20;;;;;;1559761;74;1914;-71
2021/04/11 11:09:18;;;;;;;;;;;22.30;30.30;;;;;;1559833;75;854;-71
2021/04/11 11:11:38;;;;;;;;;;;22.40;30.50;;;;;;1566953;74;700;-71
2021/04/11 11:13:41;;;;;;;;;;;22.40;30.70;;;;;;1563639;74;610;-72
2021/04/11 11:15:45;;;;;;;;;;;22.40;29.90;;;;;;1570265;74;796;-72
2021/04/11 11:17:48;;;;;;;;;;;22.30;30.00;;;;;;1570065;74;1618;-71
2021/04/11 11:20:08;;;;;;;;;;;22.30;30.20;;;;;;1566481;74;660;-71
2021/04/11 11:22:12;;;;;;;;;;;22.40;30.30;;;;;;1568287;74;665;-68
2021/04/11 11:24:18;;;;;;;;;;;22.40;29.80;;;;;;1570044;74;862;-70
2021/04/11 11:26:37;;;;;;;;;;;22.20;29.20;;;;;;1555371;75;1938;-71
2021/04/11 11:28:53;;;;;;;;;;;22.20;29.60;;;;;;1560452;74;1819;-70
2021/04/11 11:31:13;;;;;;;;;;;22.10;29.00;;;;;;1571450;74;2106;-71
2021/04/11 11:33:19;;;;;;;;;;;22.00;28.30;;;;;;1570542;75;788;-71
2021/04/11 11:35:21;;;;;;;;;;;22.00;29.70;;;;;;1564015;75;696;-70
2021/04/11 11:37:37;;;;;;;;;;;22.10;29.40;;;;;;1574723;75;1175;-71
2021/04/11 11:39:40;;;;;;;;;;;22.10;30.00;;;;;;1567990;74;771;-71
2021/04/11 11:41:52;;;;;;;;;;;22.10;29.70;;;;;;1574639;74;1909;-72
2021/04/11 11:44:01;;;;;;;;;;;22.00;30.00;;;;;;1559886;74;687;-71
2021/04/11 11:46:05;;;;;;;;;;;22.00;29.20;;;;;;1566782;74;789;-70
2021/04/11 11:48:14;;;;;;;;;;;22.00;29.70;;;;;;1550607;74;1942;-71
2021/04/11 11:50:24;;;;;;;;;;;22.00;29.80;;;;;;1549827;75;1926;-69
2021/04/11 11:52:27;;;;;;;;;;;22.20;30.00;;;;;;1553769;75;730;-71
2021/04/11 11:54:31;;;;;;;;;;;22.10;30.20;;;;;;1559907;74;697;-68
2021/04/11 11:56:34;;;;;;;;;;;22.10;29.70;;;;;;1561678;74;866;-72
2021/04/11 11:58:38;;;;;;;;;;;22.00;30.30;;;;;;1555682;75;1176;-70
2021/04/11 12:00:44;;;;;;;;;;;22.20;30.50;;;;;;1570840;74;1771;-71
2021/04/11 12:02:50;;;;;;;;;;;22.20;29.40;;;;;;1554014;75;733;-68
2021/04/11 12:04:59;;;;;;;;;;;22.00;29.80;;;;;;1556830;74;732;-69
2021/04/11 12:07:03;;;;;;;;;;;21.90;29.40;;;;;;1556375;74;1938;-69
2021/04/11 12:09:09;;;;;;;;;;;21.80;30.00;;;;;;1552073;74;1929;-65
2021/04/11 12:11:12;;;;;;;;;;;21.80;30.50;;;;;;1564890;75;824;-70
2021/04/11 12:13:16;;;;;;;;;;;22.00;30.50;;;;;;1572690;74;741;-66
2021/04/11 12:15:19;;;;;;;;;;;22.00;30.70;;;;;;1551757;74;1699;-66
2021/04/11 12:17:26;;;;;;;;;;;22.10;30.90;;;;;;1552858;74;1902;-66
2021/04/11 12:19:32;;;;;;;;;;;22.30;31.10;;;;;;1558581;74;1161;-67
2021/04/11 12:21:35;;;;;;;;;;;22.40;31.30;;;;;;1571093;75;778;-65
2021/04/11 12:23:41;;;;;;;;;;;22.40;31.50;;;;;;1576354;73;994;-65
2021/04/11 12:25:43;;;;;;;;;;;22.40;31.50;;;;;;1566264;74;860;-69
2021/04/11 12:27:45;;;;;;;;;;;22.40;30.10;;;;;;1569056;74;1941;-70
2021/04/11 12:29:47;;;;;;;;;;;22.30;31.00;;;;;;1569740;74;776;-67
2021/04/11 12:32:03;;;;;;;;;;;22.20;30.00;;;;;;1563899;74;736;-69
2021/04/11 12:34:09;;;;;;;;;;;22.20;30.70;;;;;;1548665;75;1893;-67
2021/04/11 12:36:12;;;;;;;;;;;22.20;28.90;;;;;;1553267;74;729;-67
2021/04/11 12:38:33;;;;;;;;;;;22.00;28.00;;;;;;1543821;74;1133;-66
2021/04/11 12:40:48;;;;;;;;;;;22.00;29.00;;;;;;1546345;75;916;-69